Time;durP1;ratioP1;P1;durP2;ratioP2;P2;SDS_P1;SDS_P2;PMS_P1;PMS_P2;Temp;Humidity;BMP_temperature;BMP_pressure;BME280_temperature;BME280_humidity;BME280_pressure;Samples;Min_cycle;Max_cycle;Signal;HPM_P1;HPM_P2
2022/08/29 00:02:17;;;;;;;9.20;8.30;;;25.50;99.90;;;;;;5081894;28;20461;-94
2022/08/29 00:04:43;;;;;;;12.17;8.93;;;25.50;99.90;;;;;;5099794;28;20201;-94
2022/08/29 00:07:09;;;;;;;8.80;7.60;;;25.50;99.90;;;;;;5081714;28;20658;-94
2022/08/29 00:09:34;;;;;;;8.60;7.70;;;25.40;99.90;;;;;;5081640;28;20212;-95
2022/08/29 00:12:00;;;;;;;10.80;7.57;;;25.40;99.90;;;;;;5081853;28;20179;-94
2022/08/29 00:14:26;;;;;;;8.00;7.20;;;25.40;99.90;;;;;;5081460;28;20253;-94
2022/08/29 00:16:51;;;;;;;11.33;8.30;;;25.40;99.90;;;;;;5081573;28;20386;-93
2022/08/29 00:19:17;;;;;;;12.50;8.30;;;25.40;99.90;;;;;;5081876;28;20233;-95
2022/08/29 00:21:43;;;;;;;10.73;8.30;;;25.30;99.90;;;;;;5082439;28;20225;-94
2022/08/29 00:24:09;;;;;;;10.10;7.53;;;25.30;99.90;;;;;;5081539;28;20744;-94
2022/08/29 00:26:35;;;;;;;14.50;8.43;;;25.30;99.90;;;;;;5109293;28;20168;-94
2022/08/29 00:29:00;;;;;;;8.50;7.60;;;25.30;99.90;;;;;;5084533;28;20519;-93
2022/08/29 00:31:27;;;;;;;8.30;7.07;;;25.20;99.90;;;;;;5099866;28;20172;-93
2022/08/29 00:33:52;;;;;;;9.53;7.80;;;25.20;99.90;;;;;;5081593;28;20184;-95
2022/08/29 00:36:18;;;;;;;9.97;7.60;;;25.20;99.90;;;;;;5098271;28;20509;-93
2022/08/29 00:38:44;;;;;;;8.90;7.60;;;25.20;99.90;;;;;;5080027;28;20180;-93
2022/08/29 00:41:09;;;;;;;10.07;8.40;;;25.10;99.90;;;;;;5080563;28;20218;-94
2022/08/29 00:43:37;;;;;;;9.60;8.33;;;25.00;99.90;;;;;;5080188;28;20175;-94
2022/08/29 00:46:24;;;;;;;11.70;7.37;;;25.00;99.90;;;;;;5098481;28;20733;-94
2022/08/29 00:48:55;;;;;;;10.23;8.17;;;25.00;99.90;;;;;;5079786;28;20943;-94
2022/08/29 00:51:22;;;;;;;9.93;7.80;;;24.90;99.90;;;;;;5080156;28;20420;-95
2022/08/29 00:53:51;;;;;;;8.90;7.87;;;24.90;99.90;;;;;;5097712;28;20438;-94
2022/08/29 00:56:18;;;;;;;10.03;8.80;;;24.90;99.90;;;;;;5080029;28;20470;-94
2022/08/29 00:58:52;;;;;;;8.80;7.80;;;24.90;99.90;;;;;;5080219;28;20466;-93
2022/08/29 01:01:19;;;;;;;8.17;7.20;;;24.90;99.90;;;;;;5097930;28;20416;-93
2022/08/29 01:03:47;;;;;;;10.27;8.00;;;24.80;99.90;;;;;;5079890;28;20421;-94
2022/08/29 01:06:13;;;;;;;9.83;8.70;;;24.80;99.90;;;;;;5103095;28;20443;-95
2022/08/29 01:08:39;;;;;;;9.67;7.90;;;24.80;99.90;;;;;;5083769;28;20417;-94
2022/08/29 01:13:52;;;;;;;11.90;8.50;;;24.70;99.90;;;;;;5097358;28;20418;-94
2022/08/29 01:16:19;;;;;;;15.03;8.80;;;24.70;99.90;;;;;;5079828;28;20475;-94
2022/08/29 01:18:49;;;;;;;9.90;8.33;;;24.70;99.90;;;;;;5097383;28;20483;-95
2022/08/29 01:21:32;;;;;;;11.43;8.87;;;24.60;99.90;;;;;;5079274;28;20412;-93
2022/08/29 01:24:35;;;;;;;11.90;9.30;;;24.60;99.90;;;;;;5079086;28;20404;-93
2022/08/29 01:27:01;;;;;;;11.63;8.97;;;24.60;99.90;;;;;;5079289;28;20477;-94
2022/08/29 01:29:27;;;;;;;17.47;10.30;;;24.60;99.90;;;;;;5079340;28;20440;-93
2022/08/29 01:31:54;;;;;;;12.87;8.90;;;24.60;99.90;;;;;;5079230;28;20460;-94
2022/08/29 01:34:19;;;;;;;14.37;9.50;;;24.60;99.90;;;;;;5078680;28;20479;-93
2022/08/29 01:36:54;;;;;;;10.13;8.03;;;24.60;99.90;;;;;;5078427;28;21064;-93
2022/08/29 01:39:25;;;;;;;14.07;8.53;;;24.60;99.90;;;;;;5078653;28;20226;-94
2022/08/29 01:41:51;;;;;;;11.73;9.30;;;24.50;99.90;;;;;;5078395;28;20420;-95
2022/08/29 01:44:20;;;;;;;14.10;9.67;;;24.50;99.90;;;;;;5078260;28;21009;-93
2022/08/29 01:46:48;;;;;;;11.00;9.10;;;24.50;99.90;;;;;;5078466;28;20423;-94
2022/08/29 01:49:16;;;;;;;11.20;8.83;;;24.50;99.90;;;;;;5078386;28;20501;-94
2022/08/29 01:51:42;;;;;;;12.83;9.27;;;24.50;99.90;;;;;;5096650;28;20392;-93
2022/08/29 01:54:09;;;;;;;11.90;9.50;;;24.50;99.90;;;;;;5080310;28;20465;-94
2022/08/29 01:56:41;;;;;;;11.30;9.47;;;24.50;99.90;;;;;;5089175;28;20479;-94
2022/08/29 01:59:10;;;;;;;10.93;8.90;;;24.50;99.90;;;;;;5077205;28;20430;-93
2022/08/29 02:01:39;;;;;;;16.03;10.93;;;24.50;99.90;;;;;;5078628;28;20854;-95
2022/08/29 02:04:06;;;;;;;10.60;9.37;;;24.50;99.90;;;;;;5097078;28;20480;-94
2022/08/29 02:06:33;;;;;;;10.50;9.40;;;24.50;99.90;;;;;;5096755;28;20983;-93
2022/08/29 02:08:59;;;;;;;12.80;9.80;;;24.50;99.90;;;;;;5078956;28;20419;-94
2022/08/29 02:11:25;;;;;;;9.67;8.67;;;24.50;99.90;;;;;;5079836;28;20421;-94
2022/08/29 02:13:56;;;;;;;12.77;9.47;;;24.40;99.90;;;;;;5078756;28;20549;-94
2022/08/29 02:16:24;;;;;;;13.10;9.97;;;24.40;99.90;;;;;;5097392;28;20556;-94
2022/08/29 02:18:50;;;;;;;14.30;9.50;;;24.40;99.90;;;;;;5096885;28;20434;-93
2022/08/29 02:21:18;;;;;;;13.87;9.93;;;24.40;99.90;;;;;;5080104;28;20415;-92
2022/08/29 02:23:45;;;;;;;12.83;9.13;;;24.40;99.90;;;;;;5097159;28;20216;-94
2022/08/29 02:26:11;;;;;;;10.40;9.17;;;24.40;99.90;;;;;;5079033;28;20527;-94
2022/08/29 02:28:37;;;;;;;12.50;9.43;;;24.30;99.90;;;;;;5097191;28;20410;-94
2022/08/29 02:31:04;;;;;;;13.90;10.53;;;24.30;99.90;;;;;;5079955;28;20979;-94
2022/08/29 02:33:30;;;;;;;11.50;9.47;;;24.30;99.90;;;;;;5080732;28;20415;-95
2022/08/29 02:35:57;;;;;;;13.03;9.40;;;24.30;99.90;;;;;;5080280;28;20467;-94
2022/08/29 02:38:23;;;;;;;12.53;9.97;;;24.30;99.90;;;;;;5100043;28;20408;-94
2022/08/29 02:40:49;;;;;;;10.63;9.53;;;24.20;99.90;;;;;;5097158;28;20435;-94
2022/08/29 02:43:17;;;;;;;14.00;10.83;;;24.20;99.90;;;;;;5079101;28;20183;-94
2022/08/29 02:45:44;;;;;;;14.03;9.63;;;24.20;99.90;;;;;;5081745;28;20451;-93
2022/08/29 02:48:10;;;;;;;13.77;9.97;;;24.20;99.90;;;;;;5080441;28;20508;-94
2022/08/29 02:50:44;;;;;;;11.57;9.90;;;24.20;99.90;;;;;;5077743;28;20485;-93
2022/08/29 02:53:12;;;;;;;16.40;10.37;;;24.10;99.90;;;;;;5079027;28;20411;-95
2022/08/29 02:55:37;;;;;;;13.70;10.20;;;24.10;99.90;;;;;;5079759;28;20486;-94
2022/08/29 02:58:04;;;;;;;14.27;11.40;;;24.10;99.90;;;;;;5079018;28;20411;-94
2022/08/29 03:00:31;;;;;;;12.63;10.23;;;24.00;99.90;;;;;;5096269;28;20197;-93
2022/08/29 03:02:57;;;;;;;14.47;11.60;;;24.00;99.90;;;;;;5077684;28;20408;-95
2022/08/29 03:05:26;;;;;;;12.00;10.47;;;24.00;99.90;;;;;;5096377;28;20543;-94
2022/08/29 03:07:56;;;;;;;13.50;10.63;;;23.90;99.90;;;;;;5077149;28;20792;-94
2022/08/29 03:10:23;;;;;;;12.40;10.23;;;23.90;99.90;;;;;;5094715;28;20432;-94
2022/08/29 03:12:49;;;;;;;12.23;10.60;;;23.90;99.90;;;;;;5077368;28;20460;-94
2022/08/29 03:15:16;;;;;;;18.33;10.17;;;23.80;99.90;;;;;;5077586;28;20450;-94
2022/08/29 03:17:42;;;;;;;12.30;10.50;;;23.80;99.90;;;;;;5095172;28;20664;-94
2022/08/29 03:20:09;;;;;;;12.13;9.77;;;23.80;99.90;;;;;;5077141;28;20472;-94
2022/08/29 03:22:36;;;;;;;12.90;9.53;;;23.80;99.90;;;;;;5077631;28;20403;-94
2022/08/29 03:25:03;;;;;;;13.77;10.93;;;23.70;99.90;;;;;;5081941;28;20477;-94
2022/08/29 03:27:30;;;;;;;11.67;9.60;;;23.70;99.90;;;;;;5078787;28;20443;-94
2022/08/29 03:29:56;;;;;;;13.50;10.50;;;23.70;99.90;;;;;;5078643;28;20462;-94
2022/08/29 03:32:22;;;;;;;15.00;9.63;;;23.70;99.90;;;;;;5079647;28;20988;-93
2022/08/29 03:34:48;;;;;;;12.43;11.00;;;23.70;99.90;;;;;;5082070;28;20214;-94
2022/08/29 03:37:14;;;;;;;13.87;10.03;;;23.70;99.90;;;;;;5079486;28;20824;-93
2022/08/29 03:39:39;;;;;;;13.27;9.70;;;23.80;99.90;;;;;;5101882;28;20205;-94
2022/08/29 03:42:06;;;;;;;16.13;10.80;;;23.80;99.90;;;;;;5080890;28;20178;-92
2022/08/29 03:44:33;;;;;;;20.77;15.33;;;23.80;99.90;;;;;;5079671;28;20206;-94
2022/08/29 03:46:59;;;;;;;22.20;13.97;;;23.80;99.90;;;;;;5084653;28;20411;-93
2022/08/29 03:49:25;;;;;;;14.90;11.30;;;23.80;99.90;;;;;;5078070;28;20546;-94
2022/08/29 03:51:50;;;;;;;15.50;9.83;;;23.80;99.90;;;;;;5077806;28;20194;-94
2022/08/29 03:54:16;;;;;;;13.60;10.07;;;23.80;99.90;;;;;;5077076;28;20659;-94
2022/08/29 03:56:42;;;;;;;12.70;10.10;;;23.80;99.90;;;;;;5076546;28;20697;-93
2022/08/29 03:59:09;;;;;;;13.67;9.97;;;23.80;99.90;;;;;;5076475;28;20459;-94
2022/08/29 04:01:34;;;;;;;14.00;10.47;;;23.70;99.90;;;;;;5076855;28;20177;-94
2022/08/29 04:04:00;;;;;;;15.00;11.30;;;23.80;99.90;;;;;;5100763;28;20642;-94
2022/08/29 04:06:29;;;;;;;13.10;10.63;;;23.70;99.90;;;;;;5086129;28;20199;-94
2022/08/29 04:08:58;;;;;;;15.97;10.10;;;23.80;99.90;;;;;;5084864;28;20204;-94
2022/08/29 04:11:25;;;;;;;13.80;11.10;;;23.70;99.90;;;;;;5094395;28;20830;-94
2022/08/29 04:13:52;;;;;;;13.37;8.90;;;23.80;99.90;;;;;;5092793;28;20422;-94
2022/08/29 04:16:21;;;;;;;13.23;9.60;;;23.70;99.90;;;;;;5096738;28;20464;-94
2022/08/29 04:18:47;;;;;;;13.80;9.13;;;23.70;99.90;;;;;;5097147;28;20419;-94
2022/08/29 04:21:14;;;;;;;13.20;10.37;;;23.70;99.90;;;;;;5091858;28;20441;-94
2022/08/29 04:23:40;;;;;;;11.53;9.27;;;23.70;99.90;;;;;;5081464;28;20410;-94
2022/08/29 04:26:17;;;;;;;11.70;10.00;;;23.70;99.90;;;;;;5103027;28;20433;-94
2022/08/29 04:28:44;;;;;;;12.80;9.60;;;23.60;99.90;;;;;;5080252;28;20425;-93
2022/08/29 04:31:18;;;;;;;13.77;10.23;;;23.60;99.90;;;;;;5118257;28;20791;-94
2022/08/29 04:33:45;;;;;;;12.30;10.20;;;23.60;99.90;;;;;;5088166;28;21088;-94
2022/08/29 04:36:11;;;;;;;15.27;10.53;;;23.60;99.90;;;;;;5079902;28;20470;-93
2022/08/29 04:38:37;;;;;;;14.40;10.00;;;23.60;99.90;;;;;;5090810;28;20832;-93
2022/08/29 04:41:13;;;;;;;21.07;13.97;;;23.60;99.90;;;;;;5100409;28;20448;-94
2022/08/29 04:43:40;;;;;;;14.43;10.70;;;23.60;99.90;;;;;;5100321;28;20172;-95
2022/08/29 04:46:06;;;;;;;13.93;10.03;;;23.60;99.90;;;;;;5099681;28;20442;-93
2022/08/29 04:48:32;;;;;;;12.90;9.47;;;23.60;99.90;;;;;;5117798;28;20402;-93
2022/08/29 04:51:00;;;;;;;14.13;10.27;;;23.60;99.90;;;;;;5100121;28;20462;-94
2022/08/29 04:53:26;;;;;;;11.97;9.53;;;23.60;99.90;;;;;;5100056;28;20172;-93
2022/08/29 04:56:02;;;;;;;13.27;10.17;;;23.50;99.90;;;;;;5080118;28;20458;-94
2022/08/29 04:58:29;;;;;;;12.03;9.80;;;23.50;99.90;;;;;;5078531;28;20797;-93
2022/08/29 05:00:55;;;;;;;14.37;9.10;;;23.50;99.90;;;;;;5079533;28;20517;-95
2022/08/29 05:03:22;;;;;;;14.47;9.43;;;23.50;99.90;;;;;;5079347;28;20419;-93
2022/08/29 05:05:59;;;;;;;11.23;8.37;;;23.50;99.90;;;;;;5079325;28;20472;-94
2022/08/29 05:08:25;;;;;;;11.77;9.60;;;23.60;99.90;;;;;;5111908;28;20408;-93
2022/08/29 05:10:51;;;;;;;13.17;9.23;;;23.60;99.90;;;;;;5083065;28;20460;-94
2022/08/29 05:13:17;;;;;;;11.67;9.13;;;23.60;99.90;;;;;;5081310;28;20434;-94
2022/08/29 05:15:44;;;;;;;14.20;8.33;;;23.60;99.90;;;;;;5079034;28;20824;-93
2022/08/29 05:18:13;;;;;;;14.20;10.00;;;23.60;99.90;;;;;;5078830;28;20425;-93
2022/08/29 05:20:40;;;;;;;12.80;8.73;;;23.60;99.90;;;;;;5091935;28;20449;-94
2022/08/29 05:23:07;;;;;;;10.90;8.30;;;23.60;99.90;;;;;;5108693;28;20418;-94
2022/08/29 05:25:48;;;;;;;12.40;9.70;;;23.70;99.90;;;;;;5079129;28;20462;-93
2022/08/29 05:28:14;;;;;;;10.20;8.30;;;23.70;99.90;;;;;;5075870;28;20813;-94
2022/08/29 05:30:40;;;;;;;9.63;7.40;;;23.70;99.90;;;;;;5093728;28;20553;-94
2022/08/29 05:33:06;;;;;;;11.90;8.40;;;23.80;99.90;;;;;;5078916;28;20181;-93
2022/08/29 05:35:34;;;;;;;10.17;7.43;;;23.80;99.90;;;;;;5077193;28;20710;-94
2022/08/29 05:38:00;;;;;;;12.03;8.40;;;23.80;99.90;;;;;;5078349;28;20479;-94
2022/08/29 05:40:26;;;;;;;16.57;10.53;;;23.80;99.90;;;;;;5082956;28;20486;-95
2022/08/29 05:42:52;;;;;;;27.87;17.60;;;23.80;99.90;;;;;;5088887;28;20426;-94
2022/08/29 05:45:19;;;;;;;13.70;10.07;;;23.80;99.90;;;;;;5080069;28;20208;-94
2022/08/29 05:47:45;;;;;;;13.50;9.30;;;23.80;99.90;;;;;;5086540;28;20420;-95
2022/08/29 05:50:12;;;;;;;12.70;8.70;;;23.80;99.90;;;;;;5109672;28;20481;-94
2022/08/29 05:52:39;;;;;;;14.07;9.80;;;23.80;99.90;;;;;;5084748;28;20596;-94
2022/08/29 05:55:05;;;;;;;14.93;9.27;;;23.80;99.90;;;;;;5076818;28;20487;-94
2022/08/29 05:57:31;;;;;;;11.40;8.10;;;23.80;99.90;;;;;;5085558;28;20474;-93
2022/08/29 05:59:57;;;;;;;22.13;8.93;;;23.90;99.90;;;;;;5079006;28;20491;-93
2022/08/29 06:02:23;;;;;;;11.77;9.07;;;23.90;99.90;;;;;;5079723;28;20228;-94
2022/08/29 06:04:50;;;;;;;14.37;8.60;;;23.90;99.90;;;;;;5081724;28;20216;-93
2022/08/29 06:07:15;;;;;;;11.27;8.20;;;23.90;99.90;;;;;;5107001;28;20426;-93
2022/08/29 06:09:43;;;;;;;12.07;8.47;;;24.00;99.90;;;;;;5076573;28;20459;-94
2022/08/29 06:12:10;;;;;;;13.07;8.80;;;24.00;99.90;;;;;;5090057;28;20209;-93
2022/08/29 06:14:36;;;;;;;12.63;8.63;;;24.00;99.90;;;;;;5092041;28;20466;-93
2022/08/29 06:17:03;;;;;;;13.57;9.50;;;24.00;99.90;;;;;;5077759;28;20466;-95
2022/08/29 06:19:33;;;;;;;14.33;8.60;;;24.00;99.90;;;;;;5108324;28;20216;-93
2022/08/29 06:22:00;;;;;;;14.70;9.67;;;24.10;99.90;;;;;;5079206;28;20442;-93
2022/08/29 06:24:25;;;;;;;10.67;8.20;;;24.10;99.90;;;;;;5076863;28;20458;-95
2022/08/29 06:26:51;;;;;;;13.57;8.63;;;24.10;99.90;;;;;;5076903;28;20935;-92
2022/08/29 06:29:17;;;;;;;13.00;9.50;;;24.10;99.90;;;;;;5102083;28;20246;-94
2022/08/29 06:31:42;;;;;;;11.33;8.10;;;24.10;99.90;;;;;;5075427;28;20179;-93
2022/08/29 06:34:08;;;;;;;11.53;7.43;;;24.10;99.90;;;;;;5069922;28;20184;-93
2022/08/29 06:36:35;;;;;;;14.47;9.40;;;24.20;99.90;;;;;;5100648;28;20211;-94
2022/08/29 06:39:03;;;;;;;14.57;9.83;;;24.20;99.90;;;;;;5064891;28;20460;-92
2022/08/29 06:41:29;;;;;;;13.10;8.70;;;24.20;99.90;;;;;;5081836;28;20403;-94
2022/08/29 06:43:55;;;;;;;13.10;9.00;;;24.20;99.90;;;;;;5063907;28;20475;-94
2022/08/29 06:46:27;;;;;;;12.63;9.40;;;24.30;99.90;;;;;;5061760;28;20510;-93
2022/08/29 06:48:55;;;;;;;17.67;10.03;;;24.30;99.90;;;;;;5062813;28;20768;-94
2022/08/29 06:51:21;;;;;;;10.10;8.40;;;24.30;99.90;;;;;;5064559;28;20539;-94
2022/08/29 06:53:46;;;;;;;11.60;8.30;;;24.30;99.90;;;;;;5065148;28;20423;-94
2022/08/29 06:56:13;;;;;;;20.57;10.10;;;24.40;99.90;;;;;;5085664;28;20563;-94
2022/08/29 06:58:39;;;;;;;17.37;11.50;;;24.40;99.90;;;;;;5067684;28;20730;-94
2022/08/29 07:01:11;;;;;;;15.87;9.13;;;24.40;99.90;;;;;;5091005;28;20463;-95
2022/08/29 07:03:37;;;;;;;18.43;8.93;;;24.50;99.90;;;;;;5075866;28;20410;-93
2022/08/29 07:06:03;;;;;;;12.23;8.23;;;24.50;99.90;;;;;;5091662;28;20465;-94
2022/08/29 07:08:29;;;;;;;11.20;8.10;;;24.50;99.90;;;;;;5093981;28;20420;-94
2022/08/29 07:10:55;;;;;;;14.20;8.30;;;24.60;99.90;;;;;;5083433;28;20436;-93
2022/08/29 07:13:20;;;;;;;12.10;8.30;;;24.60;99.90;;;;;;5074802;28;20822;-94
2022/08/29 07:15:46;;;;;;;11.10;8.23;;;24.70;99.90;;;;;;5076276;28;20710;-94
2022/08/29 07:18:11;;;;;;;12.60;8.50;;;24.70;99.90;;;;;;5074800;28;20243;-93
2022/08/29 07:20:40;;;;;;;11.00;8.50;;;24.80;99.90;;;;;;5074180;28;20613;-94
2022/08/29 07:23:07;;;;;;;10.83;8.03;;;24.90;99.90;;;;;;5075538;28;20266;-94
2022/08/29 07:25:33;;;;;;;10.47;8.87;;;24.90;99.90;;;;;;5093205;28;20461;-94
2022/08/29 07:27:59;;;;;;;9.77;8.27;;;24.90;99.90;;;;;;5075869;28;20404;-93
2022/08/29 07:30:25;;;;;;;12.43;7.70;;;25.00;99.90;;;;;;5075460;28;20436;-94
2022/08/29 07:32:51;;;;;;;11.27;8.20;;;25.00;99.90;;;;;;5092851;28;20892;-94
2022/08/29 07:35:18;;;;;;;9.10;7.93;;;25.00;99.90;;;;;;5072941;28;20456;-95
2022/08/29 07:37:44;;;;;;;12.20;8.70;;;25.00;99.90;;;;;;5096258;28;20207;-95
2022/08/29 07:40:18;;;;;;;10.43;7.43;;;25.10;99.90;;;;;;5077453;28;20456;-93
2022/08/29 07:42:44;;;;;;;9.67;7.87;;;25.10;99.90;;;;;;5075188;28;20776;-94
2022/08/29 07:45:11;;;;;;;9.07;7.50;;;25.10;99.90;;;;;;5075987;28;20483;-93
2022/08/29 07:47:38;;;;;;;8.13;6.50;;;25.10;99.90;;;;;;5092423;28;20788;-94
2022/08/29 07:50:06;;;;;;;11.43;7.77;;;25.20;99.90;;;;;;5083845;28;20488;-94
2022/08/29 07:52:32;;;;;;;11.93;8.23;;;25.20;99.90;;;;;;5081503;28;20435;-94
2022/08/29 07:54:58;;;;;;;11.27;7.23;;;25.20;99.90;;;;;;5094329;28;20452;-94
2022/08/29 07:57:24;;;;;;;13.83;9.00;;;25.20;99.90;;;;;;5078673;28;20253;-94
2022/08/29 07:59:50;;;;;;;10.67;7.53;;;25.20;99.90;;;;;;5079696;28;20468;-93
2022/08/29 08:02:16;;;;;;;11.67;7.23;;;25.20;99.90;;;;;;5070553;28;20200;-94
2022/08/29 08:04:41;;;;;;;11.90;7.77;;;25.20;99.90;;;;;;5079149;28;20292;-94
2022/08/29 08:07:09;;;;;;;10.23;8.00;;;25.10;99.90;;;;;;5079746;28;20664;-93
2022/08/29 08:09:36;;;;;;;13.27;8.60;;;25.10;99.90;;;;;;5078784;28;20208;-94
2022/08/29 08:12:04;;;;;;;11.43;8.10;;;25.10;99.90;;;;;;5098218;28;20424;-95
2022/08/29 08:14:30;;;;;;;8.20;7.00;;;25.10;99.90;;;;;;5079038;28;20494;-94
2022/08/29 08:16:55;;;;;;;12.07;7.90;;;25.10;99.90;;;;;;5078292;28;20498;-94
2022/08/29 08:19:21;;;;;;;9.87;7.30;;;25.10;99.90;;;;;;5077797;28;20463;-95
2022/08/29 08:21:47;;;;;;;10.67;8.60;;;25.00;99.90;;;;;;5075287;28;20196;-93
2022/08/29 08:24:12;;;;;;;11.70;8.67;;;25.00;99.90;;;;;;5075628;28;20230;-93
2022/08/29 08:26:38;;;;;;;11.50;8.40;;;25.00;99.90;;;;;;5076428;28;20195;-92
2022/08/29 08:29:04;;;;;;;11.77;7.93;;;25.10;99.90;;;;;;5079151;28;20202;-95
2022/08/29 08:31:31;;;;;;;12.77;9.30;;;25.10;99.90;;;;;;5078847;28;20181;-94
2022/08/29 08:33:56;;;;;;;11.00;8.77;;;25.10;99.90;;;;;;5082625;28;20179;-94
2022/08/29 08:36:29;;;;;;;10.40;7.87;;;25.20;99.90;;;;;;5081444;28;20488;-94
2022/08/29 08:38:56;;;;;;;7.90;7.07;;;25.10;99.90;;;;;;5080943;28;20189;-95
2022/08/29 08:41:51;;;;;;;10.43;7.47;;;25.20;99.90;;;;;;5083075;28;20416;-94
2022/08/29 08:44:20;;;;;;;11.00;8.40;;;25.20;99.90;;;;;;5092560;28;20512;-95
2022/08/29 08:46:57;;;;;;;10.20;8.27;;;25.30;99.90;;;;;;5081616;28;20409;-94
2022/08/29 08:49:41;;;;;;;8.37;7.47;;;25.20;99.90;;;;;;5076276;28;20492;-94
2022/08/29 08:52:19;;;;;;;8.87;7.27;;;25.30;99.90;;;;;;5062792;28;20436;-95
2022/08/29 08:54:56;;;;;;;10.30;7.93;;;25.30;99.90;;;;;;5076570;28;20464;-94
2022/08/29 08:57:24;;;;;;;7.27;6.43;;;25.30;99.90;;;;;;5073223;28;20460;-93
2022/08/29 08:59:56;;;;;;;10.57;8.13;;;25.40;99.90;;;;;;5095477;28;20453;-94
2022/08/29 09:02:41;;;;;;;8.20;7.13;;;25.50;99.90;;;;;;5082615;28;20409;-94
2022/08/29 09:05:10;;;;;;;7.00;6.30;;;25.60;99.90;;;;;;5069996;28;20461;-94
2022/08/29 09:08:00;;;;;;;12.10;7.00;;;25.60;99.90;;;;;;5100600;28;20444;-93
2022/08/29 09:10:42;;;;;;;8.80;6.03;;;25.70;99.90;;;;;;5093152;28;20468;-93
2022/08/29 09:13:26;;;;;;;7.20;6.47;;;25.80;99.90;;;;;;5079398;28;20826;-93
2022/08/29 09:15:57;;;;;;;10.00;7.63;;;25.90;99.90;;;;;;5092112;28;20497;-94
2022/08/29 09:18:42;;;;;;;7.33;6.60;;;26.00;99.90;;;;;;5077308;28;20540;-95
2022/08/29 09:21:14;;;;;;;10.40;7.70;;;26.10;99.90;;;;;;5077071;28;20456;-95
2022/08/29 09:23:53;;;;;;;7.37;6.20;;;26.20;99.90;;;;;;5077580;28;20440;-94
2022/08/29 09:26:21;;;;;;;7.43;6.53;;;26.30;99.90;;;;;;5080983;28;20425;-94
2022/08/29 09:28:48;;;;;;;9.40;6.87;;;26.40;99.90;;;;;;5077530;28;20457;-93
2022/08/29 09:31:33;;;;;;;7.33;6.63;;;26.50;99.90;;;;;;5072836;28;20453;-94
2022/08/29 09:34:02;;;;;;;6.43;5.83;;;26.60;99.90;;;;;;5070090;28;20437;-95
2022/08/29 09:36:45;;;;;;;7.60;6.80;;;26.70;99.90;;;;;;5071482;28;20513;-94
2022/08/29 09:39:30;;;;;;;7.43;6.33;;;26.80;99.90;;;;;;5076440;28;20544;-93
2022/08/29 09:42:20;;;;;;;6.63;5.97;;;26.90;99.90;;;;;;5071020;28;20807;-94
2022/08/29 09:44:55;;;;;;;7.07;6.03;;;27.00;99.90;;;;;;5072773;28;20480;-94
2022/08/29 09:47:25;;;;;;;9.03;7.40;;;27.10;99.90;;;;;;5089873;28;20440;-95
2022/08/29 09:50:09;;;;;;;6.80;5.80;;;27.20;99.90;;;;;;5073646;28;20472;-93
2022/08/29 09:52:50;;;;;;;7.17;6.40;;;27.30;99.90;;;;;;5088059;28;20459;-94
2022/08/29 09:55:27;;;;;;;6.97;6.27;;;27.30;99.90;;;;;;5071670;28;20464;-94
2022/08/29 09:58:07;;;;;;;6.90;6.20;;;27.40;99.90;;;;;;5073454;28;20550;-94
2022/08/29 10:00:39;;;;;;;8.40;6.00;;;27.40;99.90;;;;;;5088571;28;21726;-94
2022/08/29 10:03:08;;;;;;;6.33;5.50;;;27.50;99.90;;;;;;5075217;28;20501;-94
2022/08/29 10:05:44;;;;;;;10.23;6.10;;;27.50;99.90;;;;;;5071331;28;20441;-94
2022/08/29 10:08:30;;;;;;;5.90;5.30;;;27.60;99.90;;;;;;5074322;28;20437;-95
2022/08/29 10:11:01;;;;;;;7.17;5.90;;;27.70;99.90;;;;;;5073196;28;20452;-94
2022/08/29 10:13:27;;;;;;;8.43;6.20;;;27.70;99.90;;;;;;5073468;28;20438;-93
2022/08/29 10:16:09;;;;;;;6.90;6.20;;;27.60;99.90;;;;;;5073601;28;20489;-93
2022/08/29 10:18:44;;;;;;;10.23;7.53;;;27.70;99.90;;;;;;5074843;28;20264;-94
2022/08/29 10:21:11;;;;;;;6.40;5.80;;;27.70;99.90;;;;;;5070006;28;20503;-92
2022/08/29 10:23:42;;;;;;;6.43;5.67;;;27.70;99.90;;;;;;5069795;28;20816;-93
2022/08/29 10:26:49;;;;;;;6.37;5.63;;;27.70;99.90;;;;;;5070422;28;20437;-94
2022/08/29 10:29:30;;;;;;;7.53;5.43;;;27.80;99.90;;;;;;5069535;28;20465;-94
2022/08/29 10:32:05;;;;;;;8.07;6.00;;;27.80;99.90;;;;;;5068823;28;20448;-93
2022/08/29 10:34:36;;;;;;;5.70;5.13;;;27.80;99.90;;;;;;5072902;28;20517;-95
2022/08/29 10:37:32;;;;;;;5.43;4.93;;;27.90;99.90;;;;;;5076433;28;20457;-95
2022/08/29 10:40:21;;;;;;;6.00;5.40;;;28.00;99.90;;;;;;5073278;28;20440;-93
2022/08/29 10:42:50;;;;;;;8.63;5.30;;;28.10;99.90;;;;;;5067000;28;20512;-93
2022/08/29 10:45:26;;;;;;;5.53;5.00;;;28.10;99.90;;;;;;5072424;28;21092;-95
2022/08/29 10:48:04;;;;;;;6.67;5.53;;;28.20;99.90;;;;;;5072465;28;20525;-93
2022/08/29 10:50:57;;;;;;;6.07;5.50;;;28.20;99.90;;;;;;5091801;28;20525;-94
2022/08/29 10:53:30;;;;;;;5.33;4.83;;;28.20;99.90;;;;;;5073924;28;20447;-94
2022/08/29 10:56:09;;;;;;;6.80;5.37;;;28.20;99.90;;;;;;5076729;28;20453;-95
2022/08/29 10:59:12;;;;;;;6.07;5.20;;;28.20;99.90;;;;;;5076093;28;20452;-93
2022/08/29 11:01:50;;;;;;;5.83;5.23;;;28.10;99.90;;;;;;5070781;28;20422;-94
2022/08/29 11:04:21;;;;;;;5.20;4.70;;;28.20;99.90;;;;;;5074144;28;20457;-93
2022/08/29 11:07:08;;;;;;;5.37;4.90;;;28.20;99.90;;;;;;5071275;28;20440;-95
2022/08/29 11:09:49;;;;;;;6.33;5.73;;;28.20;99.90;;;;;;5080472;28;20512;-94
2022/08/29 11:12:17;;;;;;;6.60;5.43;;;28.20;99.90;;;;;;5071076;28;20429;-94
2022/08/29 11:15:03;;;;;;;6.33;5.30;;;28.20;99.90;;;;;;5089414;28;20669;-94
2022/08/29 11:17:34;;;;;;;6.10;5.37;;;28.20;99.90;;;;;;5073897;28;20478;-95
2022/08/29 11:20:20;;;;;;;5.40;4.90;;;28.20;99.90;;;;;;5071132;28;20459;-94
2022/08/29 11:23:25;;;;;;;6.20;5.60;;;28.20;99.90;;;;;;5076007;28;20426;-94
2022/08/29 11:25:51;;;;;;;5.47;4.80;;;28.20;99.90;;;;;;5064460;28;20809;-93
2022/08/29 11:28:38;;;;;;;5.73;5.10;;;28.20;99.90;;;;;;5076618;28;20435;-94
2022/08/29 11:31:07;;;;;;;5.20;4.70;;;28.20;99.90;;;;;;5055869;28;20443;-94
2022/08/29 11:34:01;;;;;;;4.77;4.37;;;28.20;99.90;;;;;;5103446;28;20784;-94
2022/08/29 11:36:55;;;;;;;6.80;5.30;;;28.20;99.90;;;;;;5098452;28;20829;-94
2022/08/29 11:39:54;;;;;;;4.93;4.23;;;28.10;99.90;;;;;;5080751;28;20512;-94
2022/08/29 11:42:26;;;;;;;5.57;4.93;;;28.10;99.90;;;;;;5081533;28;20964;-94
2022/08/29 11:44:56;;;;;;;6.50;5.00;;;28.10;99.90;;;;;;5081070;28;20447;-94
2022/08/29 11:47:43;;;;;;;5.70;5.10;;;28.10;99.90;;;;;;5080892;28;20527;-94
2022/08/29 11:50:15;;;;;;;6.70;4.60;;;28.00;99.90;;;;;;5082560;28;20486;-94
2022/08/29 11:52:59;;;;;;;4.90;4.17;;;28.00;99.90;;;;;;5082446;28;20412;-94
2022/08/29 11:55:35;;;;;;;4.83;4.30;;;28.00;99.90;;;;;;5102919;28;20439;-95
2022/08/29 11:58:06;;;;;;;5.77;5.27;;;28.00;99.90;;;;;;5091056;28;20457;-94
2022/08/29 12:00:54;;;;;;;4.93;4.43;;;28.00;99.90;;;;;;5106116;28;20452;-95
2022/08/29 12:03:32;;;;;;;5.13;4.63;;;28.00;99.90;;;;;;5098281;28;20926;-95
2022/08/29 12:06:20;;;;;;;7.03;6.37;;;28.00;99.90;;;;;;5080373;28;20490;-94
2022/08/29 12:09:00;;;;;;;10.30;8.33;;;27.90;99.90;;;;;;5075585;28;21063;-94
2022/08/29 12:12:03;;;;;;;7.80;6.70;;;27.90;99.90;;;;;;5074100;28;20417;-94
2022/08/29 12:14:32;;;;;;;7.70;6.57;;;27.80;99.90;;;;;;5074262;28;20437;-92
2022/08/29 12:17:02;;;;;;;5.70;5.20;;;27.80;99.90;;;;;;5075868;28;20454;-94
2022/08/29 12:19:55;;;;;;;6.70;6.07;;;27.80;99.90;;;;;;5075939;28;20504;-94
2022/08/29 12:22:45;;;;;;;7.30;6.20;;;27.80;99.90;;;;;;5071997;28;20430;-93
2022/08/29 12:25:22;;;;;;;6.07;5.47;;;27.80;99.90;;;;;;5071740;28;20571;-95
2022/08/29 12:28:02;;;;;;;6.30;5.30;;;27.80;99.90;;;;;;5076018;28;20416;-94
2022/08/29 12:30:34;;;;;;;6.20;5.57;;;27.80;99.90;;;;;;5078464;28;20489;-94
2022/08/29 12:33:10;;;;;;;6.70;5.27;;;27.80;99.90;;;;;;5058672;28;20438;-93
2022/08/29 12:36:15;;;;;;;5.50;4.87;;;27.70;99.90;;;;;;5075628;28;20869;-93
2022/08/29 12:39:01;;;;;;;11.73;5.23;;;27.70;99.90;;;;;;5080089;28;20440;-93
2022/08/29 12:41:45;;;;;;;7.27;4.83;;;27.70;99.90;;;;;;5093864;28;20452;-94
2022/08/29 12:44:15;;;;;;;5.60;5.10;;;27.80;99.90;;;;;;5086901;28;20468;-94
2022/08/29 12:46:44;;;;;;;6.70;5.50;;;27.80;99.90;;;;;;5083928;28;20451;-94
2022/08/29 12:49:19;;;;;;;5.90;4.40;;;27.80;99.90;;;;;;5082395;28;20959;-92
2022/08/29 12:52:00;;;;;;;5.97;4.63;;;27.80;99.90;;;;;;5081257;28;20810;-95
2022/08/29 12:54:36;;;;;;;5.73;4.70;;;27.80;99.90;;;;;;5077476;28;20980;-96
2022/08/29 12:57:05;;;;;;;5.37;4.87;;;27.80;99.90;;;;;;5078552;28;20475;-94
2022/08/29 12:59:32;;;;;;;5.60;5.03;;;27.80;99.90;;;;;;5103949;28;20448;-93
2022/08/29 13:01:59;;;;;;;6.20;5.33;;;27.80;99.90;;;;;;5091724;28;20451;-95